sensor_id;sensor_type;location;lat;lon;timestamp;P1;durP1;ratioP1;P2;durP2;ratioP2
10651;SDS011;5374;42.742;23.266;2023-02-08T00:00:26;21.70;;;13.70;;
10651;SDS011;5374;42.742;23.266;2023-02-08T00:03:14;22.00;;;13.83;;
10651;SDS011;5374;42.742;23.266;2023-02-08T00:06:02;25.13;;;15.07;;
10651;SDS011;5374;42.742;23.266;2023-02-08T00:08:49;21.03;;;14.23;;
10651;SDS011;5374;42.742;23.266;2023-02-08T00:11:36;28.00;;;15.17;;
10651;SDS011;5374;42.742;23.266;2023-02-08T00:14:23;25.57;;;14.47;;
10651;SDS011;5374;42.742;23.266;2023-02-08T00:17:10;22.43;;;14.30;;
10651;SDS011;5374;42.742;23.266;2023-02-08T00:19:59;22.83;;;15.10;;
10651;SDS011;5374;42.742;23.266;2023-02-08T00:22:46;23.30;;;15.00;;
10651;SDS011;5374;42.742;23.266;2023-02-08T00:25:33;23.77;;;14.23;;
10651;SDS011;5374;42.742;23.266;2023-02-08T00:28:21;23.27;;;14.63;;
10651;SDS011;5374;42.742;23.266;2023-02-08T00:31:08;25.17;;;14.80;;
10651;SDS011;5374;42.742;23.266;2023-02-08T00:33:55;26.53;;;15.93;;
10651;SDS011;5374;42.742;23.266;2023-02-08T00:36:43;24.50;;;14.53;;
10651;SDS011;5374;42.742;23.266;2023-02-08T00:39:30;27.63;;;15.60;;
10651;SDS011;5374;42.742;23.266;2023-02-08T00:42:18;23.60;;;14.83;;
10651;SDS011;5374;42.742;23.266;2023-02-08T00:45:05;26.57;;;15.77;;
10651;SDS011;5374;42.742;23.266;2023-02-08T00:47:55;22.50;;;14.00;;
10651;SDS011;5374;42.742;23.266;2023-02-08T00:50:42;21.17;;;13.90;;
10651;SDS011;5374;42.742;23.266;2023-02-08T00:53:31;22.33;;;14.50;;
10651;SDS011;5374;42.742;23.266;2023-02-08T00:56:21;24.30;;;14.67;;
10651;SDS011;5374;42.742;23.266;2023-02-08T00:59:08;22.83;;;14.50;;
10651;SDS011;5374;42.742;23.266;2023-02-08T01:01:56;23.10;;;14.73;;
10651;SDS011;5374;42.742;23.266;2023-02-08T01:04:43;24.17;;;14.83;;
10651;SDS011;5374;42.742;23.266;2023-02-08T01:07:30;24.47;;;15.43;;
10651;SDS011;5374;42.742;23.266;2023-02-08T01:10:19;23.93;;;15.73;;
10651;SDS011;5374;42.742;23.266;2023-02-08T01:13:06;22.53;;;14.77;;
10651;SDS011;5374;42.742;23.266;2023-02-08T01:15:54;24.13;;;15.63;;
10651;SDS011;5374;42.742;23.266;2023-02-08T01:18:43;23.83;;;14.67;;
10651;SDS011;5374;42.742;23.266;2023-02-08T01:21:35;25.37;;;15.37;;
10651;SDS011;5374;42.742;23.266;2023-02-08T01:24:24;28.00;;;16.23;;
10651;SDS011;5374;42.742;23.266;2023-02-08T01:27:12;26.13;;;16.13;;
10651;SDS011;5374;42.742;23.266;2023-02-08T01:29:59;25.00;;;15.73;;
10651;SDS011;5374;42.742;23.266;2023-02-08T01:32:46;28.57;;;16.53;;
10651;SDS011;5374;42.742;23.266;2023-02-08T01:35:33;28.17;;;16.30;;
10651;SDS011;5374;42.742;23.266;2023-02-08T01:38:20;30.00;;;17.43;;
10651;SDS011;5374;42.742;23.266;2023-02-08T01:41:10;29.33;;;17.07;;
10651;SDS011;5374;42.742;23.266;2023-02-08T01:44:03;30.30;;;17.10;;
10651;SDS011;5374;42.742;23.266;2023-02-08T01:46:52;29.07;;;17.60;;
10651;SDS011;5374;42.742;23.266;2023-02-08T01:49:39;32.07;;;19.23;;
10651;SDS011;5374;42.742;23.266;2023-02-08T01:52:26;27.80;;;17.13;;
10651;SDS011;5374;42.742;23.266;2023-02-08T01:55:15;28.60;;;17.70;;
10651;SDS011;5374;42.742;23.266;2023-02-08T01:58:06;28.03;;;17.13;;
10651;SDS011;5374;42.742;23.266;2023-02-08T02:00:57;29.10;;;17.00;;
10651;SDS011;5374;42.742;23.266;2023-02-08T02:03:46;32.60;;;17.60;;
10651;SDS011;5374;42.742;23.266;2023-02-08T02:06:34;32.07;;;18.40;;
10651;SDS011;5374;42.742;23.266;2023-02-08T02:09:26;27.23;;;17.33;;
10651;SDS011;5374;42.742;23.266;2023-02-08T02:12:17;25.50;;;16.00;;
10651;SDS011;5374;42.742;23.266;2023-02-08T02:15:05;29.23;;;18.30;;
10651;SDS011;5374;42.742;23.266;2023-02-08T02:17:54;29.47;;;17.10;;
10651;SDS011;5374;42.742;23.266;2023-02-08T02:20:48;28.63;;;17.77;;
10651;SDS011;5374;42.742;23.266;2023-02-08T02:36:42;32.80;;;18.67;;
10651;SDS011;5374;42.742;23.266;2023-02-08T02:39:39;28.17;;;17.10;;
10651;SDS011;5374;42.742;23.266;2023-02-08T02:42:32;31.10;;;17.90;;
10651;SDS011;5374;42.742;23.266;2023-02-08T02:45:45;26.73;;;16.87;;
10651;SDS011;5374;42.742;23.266;2023-02-08T02:48:39;30.23;;;16.23;;
10651;SDS011;5374;42.742;23.266;2023-02-08T02:51:35;27.60;;;16.10;;
10651;SDS011;5374;42.742;23.266;2023-02-08T02:54:27;26.73;;;16.43;;
10651;SDS011;5374;42.742;23.266;2023-02-08T02:57:21;31.40;;;19.37;;
10651;SDS011;5374;42.742;23.266;2023-02-08T03:00:15;28.10;;;17.00;;
10651;SDS011;5374;42.742;23.266;2023-02-08T03:03:08;28.47;;;16.63;;
10651;SDS011;5374;42.742;23.266;2023-02-08T03:06:05;25.37;;;16.13;;
10651;SDS011;5374;42.742;23.266;2023-02-08T03:09:13;24.20;;;15.07;;
10651;SDS011;5374;42.742;23.266;2023-02-08T03:12:14;24.57;;;15.07;;
10651;SDS011;5374;42.742;23.266;2023-02-08T03:15:17;26.00;;;15.83;;
10651;SDS011;5374;42.742;23.266;2023-02-08T03:18:14;35.27;;;21.03;;
10651;SDS011;5374;42.742;23.266;2023-02-08T03:21:16;41.23;;;24.97;;
10651;SDS011;5374;42.742;23.266;2023-02-08T03:24:10;34.07;;;19.87;;
10651;SDS011;5374;42.742;23.266;2023-02-08T03:27:07;30.07;;;16.70;;
10651;SDS011;5374;42.742;23.266;2023-02-08T03:29:59;28.20;;;16.60;;
10651;SDS011;5374;42.742;23.266;2023-02-08T03:32:49;29.53;;;16.87;;
10651;SDS011;5374;42.742;23.266;2023-02-08T03:35:42;29.33;;;16.67;;
10651;SDS011;5374;42.742;23.266;2023-02-08T03:38:35;25.97;;;16.27;;
10651;SDS011;5374;42.742;23.266;2023-02-08T03:41:29;30.37;;;18.50;;
10651;SDS011;5374;42.742;23.266;2023-02-08T03:44:20;29.47;;;17.63;;
10651;SDS011;5374;42.742;23.266;2023-02-08T03:47:11;24.87;;;15.90;;
10651;SDS011;5374;42.742;23.266;2023-02-08T03:50:02;27.17;;;15.67;;
10651;SDS011;5374;42.742;23.266;2023-02-08T03:52:53;24.43;;;14.90;;
10651;SDS011;5374;42.742;23.266;2023-02-08T03:55:41;30.50;;;16.23;;
10651;SDS011;5374;42.742;23.266;2023-02-08T03:58:37;26.00;;;15.57;;
10651;SDS011;5374;42.742;23.266;2023-02-08T04:01:28;24.20;;;14.80;;
10651;SDS011;5374;42.742;23.266;2023-02-08T04:04:21;26.50;;;16.03;;
10651;SDS011;5374;42.742;23.266;2023-02-08T04:07:09;25.47;;;16.07;;
10651;SDS011;5374;42.742;23.266;2023-02-08T04:09:56;24.10;;;14.37;;
10651;SDS011;5374;42.742;23.266;2023-02-08T04:12:43;22.33;;;14.13;;
10651;SDS011;5374;42.742;23.266;2023-02-08T04:15:33;25.20;;;15.07;;
10651;SDS011;5374;42.742;23.266;2023-02-08T04:18:20;21.50;;;12.30;;
10651;SDS011;5374;42.742;23.266;2023-02-08T04:21:07;21.80;;;13.50;;
10651;SDS011;5374;42.742;23.266;2023-02-08T04:23:54;27.07;;;16.00;;
10651;SDS011;5374;42.742;23.266;2023-02-08T04:26:41;25.63;;;15.27;;
10651;SDS011;5374;42.742;23.266;2023-02-08T04:29:29;42.33;;;23.37;;
10651;SDS011;5374;42.742;23.266;2023-02-08T04:32:20;33.73;;;19.57;;
10651;SDS011;5374;42.742;23.266;2023-02-08T04:35:09;25.10;;;14.80;;
10651;SDS011;5374;42.742;23.266;2023-02-08T04:37:56;22.70;;;13.90;;
10651;SDS011;5374;42.742;23.266;2023-02-08T04:40:44;33.53;;;19.40;;
10651;SDS011;5374;42.742;23.266;2023-02-08T04:43:31;25.50;;;14.93;;
10651;SDS011;5374;42.742;23.266;2023-02-08T04:46:18;23.20;;;14.27;;
10651;SDS011;5374;42.742;23.266;2023-02-08T04:49:06;24.50;;;14.87;;
10651;SDS011;5374;42.742;23.266;2023-02-08T04:51:53;20.83;;;13.57;;
10651;SDS011;5374;42.742;23.266;2023-02-08T04:54:40;20.93;;;13.07;;
10651;SDS011;5374;42.742;23.266;2023-02-08T04:57:27;24.87;;;13.77;;
10651;SDS011;5374;42.742;23.266;2023-02-08T05:00:15;17.40;;;12.37;;
10651;SDS011;5374;42.742;23.266;2023-02-08T05:03:03;18.70;;;13.00;;
10651;SDS011;5374;42.742;23.266;2023-02-08T05:05:56;26.47;;;15.37;;
10651;SDS011;5374;42.742;23.266;2023-02-08T05:08:44;27.33;;;14.90;;
10651;SDS011;5374;42.742;23.266;2023-02-08T05:11:31;34.07;;;19.87;;
10651;SDS011;5374;42.742;23.266;2023-02-08T05:14:18;28.00;;;14.90;;
10651;SDS011;5374;42.742;23.266;2023-02-08T05:17:05;27.50;;;16.10;;
10651;SDS011;5374;42.742;23.266;2023-02-08T05:19:52;53.33;;;28.17;;
10651;SDS011;5374;42.742;23.266;2023-02-08T05:22:41;65.47;;;33.63;;
10651;SDS011;5374;42.742;23.266;2023-02-08T05:25:28;80.70;;;39.13;;
10651;SDS011;5374;42.742;23.266;2023-02-08T05:28:15;70.80;;;33.17;;
10651;SDS011;5374;42.742;23.266;2023-02-08T05:31:07;47.47;;;25.83;;
10651;SDS011;5374;42.742;23.266;2023-02-08T05:33:57;40.83;;;22.33;;
10651;SDS011;5374;42.742;23.266;2023-02-08T05:36:45;32.80;;;18.37;;
10651;SDS011;5374;42.742;23.266;2023-02-08T05:39:34;36.07;;;20.57;;
10651;SDS011;5374;42.742;23.266;2023-02-08T05:42:21;32.93;;;19.70;;
10651;SDS011;5374;42.742;23.266;2023-02-08T05:45:08;29.10;;;16.73;;
10651;SDS011;5374;42.742;23.266;2023-02-08T05:47:55;28.13;;;17.10;;
10651;SDS011;5374;42.742;23.266;2023-02-08T05:50:42;29.93;;;17.57;;
10651;SDS011;5374;42.742;23.266;2023-02-08T05:53:30;33.63;;;17.40;;
10651;SDS011;5374;42.742;23.266;2023-02-08T05:56:18;29.20;;;16.57;;
10651;SDS011;5374;42.742;23.266;2023-02-08T05:59:05;28.27;;;16.70;;
10651;SDS011;5374;42.742;23.266;2023-02-08T06:01:53;31.43;;;18.50;;
10651;SDS011;5374;42.742;23.266;2023-02-08T06:04:40;30.97;;;18.70;;
10651;SDS011;5374;42.742;23.266;2023-02-08T06:07:27;37.27;;;22.17;;
10651;SDS011;5374;42.742;23.266;2023-02-08T06:10:14;36.17;;;19.93;;
10651;SDS011;5374;42.742;23.266;2023-02-08T06:13:03;32.07;;;18.93;;
10651;SDS011;5374;42.742;23.266;2023-02-08T06:15:50;32.80;;;22.03;;
10651;SDS011;5374;42.742;23.266;2023-02-08T06:18:37;45.33;;;23.77;;
10651;SDS011;5374;42.742;23.266;2023-02-08T06:21:25;44.23;;;23.83;;
10651;SDS011;5374;42.742;23.266;2023-02-08T06:24:12;58.70;;;31.57;;
10651;SDS011;5374;42.742;23.266;2023-02-08T06:27:01;60.87;;;33.00;;
10651;SDS011;5374;42.742;23.266;2023-02-08T06:29:49;86.10;;;42.83;;
10651;SDS011;5374;42.742;23.266;2023-02-08T06:32:36;111.53;;;55.80;;
10651;SDS011;5374;42.742;23.266;2023-02-08T06:35:23;67.53;;;35.27;;
10651;SDS011;5374;42.742;23.266;2023-02-08T06:38:11;37.63;;;21.47;;
10651;SDS011;5374;42.742;23.266;2023-02-08T06:40:58;31.57;;;19.70;;
10651;SDS011;5374;42.742;23.266;2023-02-08T06:43:45;45.90;;;28.43;;
10651;SDS011;5374;42.742;23.266;2023-02-08T06:46:34;27.37;;;18.03;;
10651;SDS011;5374;42.742;23.266;2023-02-08T06:49:21;18.43;;;13.17;;
10651;SDS011;5374;42.742;23.266;2023-02-08T06:52:08;20.03;;;13.83;;
10651;SDS011;5374;42.742;23.266;2023-02-08T06:54:55;32.40;;;21.63;;
10651;SDS011;5374;42.742;23.266;2023-02-08T06:57:43;22.30;;;16.40;;
10651;SDS011;5374;42.742;23.266;2023-02-08T07:00:30;22.60;;;17.17;;
10651;SDS011;5374;42.742;23.266;2023-02-08T07:03:19;26.33;;;16.43;;
10651;SDS011;5374;42.742;23.266;2023-02-08T07:06:10;31.47;;;22.30;;
10651;SDS011;5374;42.742;23.266;2023-02-08T07:08:58;21.57;;;16.17;;
10651;SDS011;5374;42.742;23.266;2023-02-08T07:11:47;22.77;;;16.80;;
10651;SDS011;5374;42.742;23.266;2023-02-08T07:14:34;25.83;;;16.90;;
10651;SDS011;5374;42.742;23.266;2023-02-08T07:17:24;26.87;;;19.30;;
10651;SDS011;5374;42.742;23.266;2023-02-08T07:20:12;31.00;;;20.97;;
10651;SDS011;5374;42.742;23.266;2023-02-08T07:22:59;27.93;;;18.90;;
10651;SDS011;5374;42.742;23.266;2023-02-08T07:25:54;28.73;;;20.97;;
10651;SDS011;5374;42.742;23.266;2023-02-08T07:28:42;23.13;;;17.07;;
10651;SDS011;5374;42.742;23.266;2023-02-08T07:31:29;19.90;;;15.20;;
10651;SDS011;5374;42.742;23.266;2023-02-08T07:34:16;21.93;;;16.40;;
10651;SDS011;5374;42.742;23.266;2023-02-08T07:37:07;23.27;;;15.33;;
10651;SDS011;5374;42.742;23.266;2023-02-08T07:39:54;24.93;;;19.63;;
10651;SDS011;5374;42.742;23.266;2023-02-08T07:42:42;25.57;;;16.87;;
10651;SDS011;5374;42.742;23.266;2023-02-08T07:45:29;32.57;;;21.30;;
10651;SDS011;5374;42.742;23.266;2023-02-08T07:48:17;26.23;;;16.93;;
10651;SDS011;5374;42.742;23.266;2023-02-08T07:51:04;24.33;;;15.90;;
10651;SDS011;5374;42.742;23.266;2023-02-08T07:53:53;23.47;;;15.47;;
10651;SDS011;5374;42.742;23.266;2023-02-08T07:56:40;21.13;;;14.60;;
10651;SDS011;5374;42.742;23.266;2023-02-08T07:59:27;25.43;;;14.60;;
10651;SDS011;5374;42.742;23.266;2023-02-08T08:02:15;24.43;;;15.53;;
10651;SDS011;5374;42.742;23.266;2023-02-08T08:05:02;23.20;;;15.07;;
10651;SDS011;5374;42.742;23.266;2023-02-08T08:07:49;24.13;;;14.63;;
10651;SDS011;5374;42.742;23.266;2023-02-08T08:10:38;23.10;;;14.87;;
10651;SDS011;5374;42.742;23.266;2023-02-08T08:13:25;24.33;;;16.30;;
10651;SDS011;5374;42.742;23.266;2023-02-08T08:16:12;24.33;;;14.60;;
10651;SDS011;5374;42.742;23.266;2023-02-08T08:19:00;31.27;;;17.17;;
10651;SDS011;5374;42.742;23.266;2023-02-08T08:21:47;20.30;;;14.70;;
10651;SDS011;5374;42.742;23.266;2023-02-08T08:24:34;20.50;;;14.90;;
10651;SDS011;5374;42.742;23.266;2023-02-08T08:27:23;25.33;;;14.87;;
10651;SDS011;5374;42.742;23.266;2023-02-08T08:30:11;32.23;;;21.00;;
10651;SDS011;5374;42.742;23.266;2023-02-08T08:33:00;25.80;;;16.17;;
10651;SDS011;5374;42.742;23.266;2023-02-08T08:35:47;24.10;;;15.47;;
10651;SDS011;5374;42.742;23.266;2023-02-08T08:38:34;21.63;;;14.90;;
10651;SDS011;5374;42.742;23.266;2023-02-08T08:41:23;21.87;;;14.13;;
10651;SDS011;5374;42.742;23.266;2023-02-08T08:44:13;19.60;;;12.73;;
10651;SDS011;5374;42.742;23.266;2023-02-08T08:47:00;16.53;;;11.73;;
10651;SDS011;5374;42.742;23.266;2023-02-08T08:49:48;18.50;;;13.47;;
10651;SDS011;5374;42.742;23.266;2023-02-08T08:52:35;23.97;;;15.60;;
10651;SDS011;5374;42.742;23.266;2023-02-08T08:55:22;19.10;;;13.00;;
10651;SDS011;5374;42.742;23.266;2023-02-08T08:58:09;23.67;;;13.20;;
10651;SDS011;5374;42.742;23.266;2023-02-08T09:00:57;18.67;;;11.57;;
10651;SDS011;5374;42.742;23.266;2023-02-08T09:03:45;20.33;;;14.83;;
10651;SDS011;5374;42.742;23.266;2023-02-08T09:06:32;20.77;;;15.77;;
10651;SDS011;5374;42.742;23.266;2023-02-08T09:09:20;20.83;;;13.17;;
10651;SDS011;5374;42.742;23.266;2023-02-08T09:12:08;16.33;;;12.10;;
10651;SDS011;5374;42.742;23.266;2023-02-08T09:14:55;17.23;;;12.17;;
10651;SDS011;5374;42.742;23.266;2023-02-08T09:17:43;16.83;;;12.43;;
10651;SDS011;5374;42.742;23.266;2023-02-08T09:20:30;19.60;;;13.80;;
10651;SDS011;5374;42.742;23.266;2023-02-08T09:23:17;20.33;;;13.67;;
10651;SDS011;5374;42.742;23.266;2023-02-08T09:26:05;24.90;;;14.20;;
10651;SDS011;5374;42.742;23.266;2023-02-08T09:28:57;19.53;;;13.87;;
10651;SDS011;5374;42.742;23.266;2023-02-08T09:31:45;19.73;;;12.90;;
10651;SDS011;5374;42.742;23.266;2023-02-08T09:34:33;27.03;;;15.77;;
10651;SDS011;5374;42.742;23.266;2023-02-08T09:37:20;26.43;;;14.43;;
10651;SDS011;5374;42.742;23.266;2023-02-08T09:40:11;19.20;;;12.77;;
10651;SDS011;5374;42.742;23.266;2023-02-08T09:43:07;20.57;;;13.23;;
10651;SDS011;5374;42.742;23.266;2023-02-08T09:45:59;25.83;;;15.63;;
10651;SDS011;5374;42.742;23.266;2023-02-08T09:48:51;18.70;;;13.60;;
10651;SDS011;5374;42.742;23.266;2023-02-08T09:51:44;23.43;;;16.47;;
10651;SDS011;5374;42.742;23.266;2023-02-08T09:54:36;39.83;;;29.07;;
10651;SDS011;5374;42.742;23.266;2023-02-08T09:57:27;17.47;;;11.87;;
10651;SDS011;5374;42.742;23.266;2023-02-08T10:00:18;17.33;;;11.13;;
10651;SDS011;5374;42.742;23.266;2023-02-08T10:03:13;15.60;;;11.13;;
10651;SDS011;5374;42.742;23.266;2023-02-08T10:06:09;18.03;;;11.93;;
10651;SDS011;5374;42.742;23.266;2023-02-08T10:09:02;16.93;;;11.27;;
10651;SDS011;5374;42.742;23.266;2023-02-08T10:11:53;16.80;;;12.03;;
10651;SDS011;5374;42.742;23.266;2023-02-08T10:14:54;14.60;;;9.20;;
10651;SDS011;5374;42.742;23.266;2023-02-08T10:17:52;12.40;;;9.00;;
10651;SDS011;5374;42.742;23.266;2023-02-08T10:20:58;9.77;;;7.43;;
10651;SDS011;5374;42.742;23.266;2023-02-08T10:24:11;12.50;;;7.23;;
10651;SDS011;5374;42.742;23.266;2023-02-08T10:27:12;13.73;;;8.03;;
10651;SDS011;5374;42.742;23.266;2023-02-08T10:33:17;11.97;;;8.37;;
10651;SDS011;5374;42.742;23.266;2023-02-08T10:36:11;12.33;;;8.67;;
10651;SDS011;5374;42.742;23.266;2023-02-08T10:39:02;14.93;;;8.40;;
10651;SDS011;5374;42.742;23.266;2023-02-08T10:41:56;12.70;;;9.00;;
10651;SDS011;5374;42.742;23.266;2023-02-08T10:44:56;15.53;;;9.93;;
10651;SDS011;5374;42.742;23.266;2023-02-08T10:47:54;11.73;;;8.37;;
10651;SDS011;5374;42.742;23.266;2023-02-08T10:50:44;15.30;;;9.77;;
10651;SDS011;5374;42.742;23.266;2023-02-08T10:53:32;14.03;;;8.57;;
10651;SDS011;5374;42.742;23.266;2023-02-08T10:56:27;15.83;;;9.03;;
10651;SDS011;5374;42.742;23.266;2023-02-08T10:59:25;11.07;;;7.73;;
10651;SDS011;5374;42.742;23.266;2023-02-08T11:02:18;11.43;;;8.43;;
10651;SDS011;5374;42.742;23.266;2023-02-08T11:05:08;16.23;;;8.83;;
10651;SDS011;5374;42.742;23.266;2023-02-08T11:08:03;15.13;;;10.33;;
10651;SDS011;5374;42.742;23.266;2023-02-08T11:10:57;12.33;;;8.60;;
10651;SDS011;5374;42.742;23.266;2023-02-08T11:13:48;14.57;;;9.77;;
10651;SDS011;5374;42.742;23.266;2023-02-08T11:16:37;23.60;;;12.50;;
10651;SDS011;5374;42.742;23.266;2023-02-08T11:19:31;24.80;;;10.30;;
10651;SDS011;5374;42.742;23.266;2023-02-08T11:22:22;9.43;;;7.33;;
10651;SDS011;5374;42.742;23.266;2023-02-08T11:25:29;14.03;;;8.80;;
10651;SDS011;5374;42.742;23.266;2023-02-08T11:28:26;16.43;;;9.60;;
10651;SDS011;5374;42.742;23.266;2023-02-08T11:31:15;13.13;;;8.03;;
10651;SDS011;5374;42.742;23.266;2023-02-08T11:34:06;15.73;;;8.03;;
10651;SDS011;5374;42.742;23.266;2023-02-08T11:36:55;13.03;;;8.13;;
10651;SDS011;5374;42.742;23.266;2023-02-08T11:39:44;11.87;;;8.90;;
10651;SDS011;5374;42.742;23.266;2023-02-08T11:42:36;11.30;;;8.13;;
10651;SDS011;5374;42.742;23.266;2023-02-08T11:45:29;12.73;;;8.00;;
10651;SDS011;5374;42.742;23.266;2023-02-08T11:48:22;13.90;;;7.70;;
10651;SDS011;5374;42.742;23.266;2023-02-08T11:51:21;11.50;;;8.00;;
10651;SDS011;5374;42.742;23.266;2023-02-08T11:54:30;12.57;;;8.67;;
10651;SDS011;5374;42.742;23.266;2023-02-08T11:57:20;28.63;;;16.57;;
10651;SDS011;5374;42.742;23.266;2023-02-08T12:00:12;12.97;;;8.57;;
10651;SDS011;5374;42.742;23.266;2023-02-08T12:03:04;13.13;;;8.97;;
10651;SDS011;5374;42.742;23.266;2023-02-08T12:06:03;11.57;;;8.37;;
10651;SDS011;5374;42.742;23.266;2023-02-08T12:09:06;12.63;;;7.83;;
10651;SDS011;5374;42.742;23.266;2023-02-08T12:12:04;15.53;;;8.90;;
10651;SDS011;5374;42.742;23.266;2023-02-08T12:15:04;13.43;;;8.37;;
10651;SDS011;5374;42.742;23.266;2023-02-08T12:18:05;14.53;;;9.53;;
10651;SDS011;5374;42.742;23.266;2023-02-08T12:21:06;11.93;;;7.87;;
10651;SDS011;5374;42.742;23.266;2023-02-08T12:23:58;13.03;;;9.40;;
10651;SDS011;5374;42.742;23.266;2023-02-08T12:26:57;16.70;;;12.30;;
10651;SDS011;5374;42.742;23.266;2023-02-08T12:29:53;12.37;;;8.63;;
10651;SDS011;5374;42.742;23.266;2023-02-08T12:32:52;12.67;;;8.30;;
10651;SDS011;5374;42.742;23.266;2023-02-08T12:35:52;10.43;;;6.90;;
10651;SDS011;5374;42.742;23.266;2023-02-08T12:38:54;9.03;;;6.43;;
10651;SDS011;5374;42.742;23.266;2023-02-08T12:42:13;8.20;;;5.63;;
10651;SDS011;5374;42.742;23.266;2023-02-08T12:45:16;7.77;;;5.17;;
10651;SDS011;5374;42.742;23.266;2023-02-08T12:48:28;9.67;;;5.30;;
10651;SDS011;5374;42.742;23.266;2023-02-08T12:51:28;8.37;;;4.77;;
10651;SDS011;5374;42.742;23.266;2023-02-08T12:54:25;8.77;;;5.70;;
10651;SDS011;5374;42.742;23.266;2023-02-08T12:57:20;8.60;;;6.13;;
10651;SDS011;5374;42.742;23.266;2023-02-08T13:00:15;8.63;;;6.20;;
10651;SDS011;5374;42.742;23.266;2023-02-08T13:03:21;10.77;;;5.43;;
10651;SDS011;5374;42.742;23.266;2023-02-08T13:06:17;10.57;;;6.57;;
10651;SDS011;5374;42.742;23.266;2023-02-08T13:09:11;11.53;;;7.43;;
10651;SDS011;5374;42.742;23.266;2023-02-08T13:12:05;10.03;;;6.50;;
10651;SDS011;5374;42.742;23.266;2023-02-08T13:15:00;10.30;;;6.77;;
10651;SDS011;5374;42.742;23.266;2023-02-08T13:17:52;14.47;;;6.03;;
10651;SDS011;5374;42.742;23.266;2023-02-08T13:20:43;10.33;;;5.43;;
10651;SDS011;5374;42.742;23.266;2023-02-08T13:23:33;8.30;;;5.57;;
10651;SDS011;5374;42.742;23.266;2023-02-08T13:26:24;7.87;;;5.97;;
10651;SDS011;5374;42.742;23.266;2023-02-08T13:29:14;9.83;;;6.60;;
10651;SDS011;5374;42.742;23.266;2023-02-08T13:32:07;9.60;;;6.63;;
10651;SDS011;5374;42.742;23.266;2023-02-08T13:35:00;10.03;;;6.83;;
10651;SDS011;5374;42.742;23.266;2023-02-08T13:37:53;17.47;;;10.00;;
10651;SDS011;5374;42.742;23.266;2023-02-08T13:40:48;10.90;;;6.80;;
10651;SDS011;5374;42.742;23.266;2023-02-08T13:43:50;10.00;;;6.83;;
10651;SDS011;5374;42.742;23.266;2023-02-08T13:46:42;12.50;;;6.77;;
10651;SDS011;5374;42.742;23.266;2023-02-08T13:49:43;14.83;;;9.53;;
10651;SDS011;5374;42.742;23.266;2023-02-08T13:52:45;9.33;;;6.10;;
10651;SDS011;5374;42.742;23.266;2023-02-08T13:55:49;10.83;;;6.50;;
10651;SDS011;5374;42.742;23.266;2023-02-08T14:08:33;8.37;;;5.53;;
10651;SDS011;5374;42.742;23.266;2023-02-08T14:11:32;9.87;;;5.97;;
10651;SDS011;5374;42.742;23.266;2023-02-08T14:14:30;10.83;;;6.57;;
10651;SDS011;5374;42.742;23.266;2023-02-08T14:17:22;9.30;;;6.00;;
10651;SDS011;5374;42.742;23.266;2023-02-08T14:20:16;8.70;;;5.73;;
10651;SDS011;5374;42.742;23.266;2023-02-08T14:23:19;9.67;;;6.17;;
10651;SDS011;5374;42.742;23.266;2023-02-08T14:26:09;10.60;;;6.50;;
10651;SDS011;5374;42.742;23.266;2023-02-08T14:29:15;10.77;;;6.20;;
10651;SDS011;5374;42.742;23.266;2023-02-08T14:32:07;11.87;;;6.97;;
10651;SDS011;5374;42.742;23.266;2023-02-08T14:34:58;15.33;;;8.40;;
10651;SDS011;5374;42.742;23.266;2023-02-08T14:37:49;12.57;;;8.23;;
10651;SDS011;5374;42.742;23.266;2023-02-08T14:40:58;14.83;;;9.43;;
10651;SDS011;5374;42.742;23.266;2023-02-08T14:43:46;9.90;;;7.90;;
10651;SDS011;5374;42.742;23.266;2023-02-08T14:46:41;11.40;;;8.00;;
10651;SDS011;5374;42.742;23.266;2023-02-08T14:49:33;12.40;;;9.57;;
10651;SDS011;5374;42.742;23.266;2023-02-08T14:52:23;11.53;;;7.97;;
10651;SDS011;5374;42.742;23.266;2023-02-08T14:55:12;14.97;;;8.07;;
10651;SDS011;5374;42.742;23.266;2023-02-08T14:58:05;10.63;;;6.17;;
10651;SDS011;5374;42.742;23.266;2023-02-08T15:00:54;12.80;;;6.40;;
10651;SDS011;5374;42.742;23.266;2023-02-08T15:03:45;30.27;;;17.33;;
10651;SDS011;5374;42.742;23.266;2023-02-08T15:06:51;28.07;;;17.40;;
10651;SDS011;5374;42.742;23.266;2023-02-08T15:09:50;28.43;;;17.80;;
10651;SDS011;5374;42.742;23.266;2023-02-08T15:12:38;10.50;;;7.27;;
10651;SDS011;5374;42.742;23.266;2023-02-08T15:15:29;17.37;;;9.87;;
10651;SDS011;5374;42.742;23.266;2023-02-08T15:18:20;10.63;;;6.60;;
10651;SDS011;5374;42.742;23.266;2023-02-08T15:21:14;14.53;;;10.23;;
10651;SDS011;5374;42.742;23.266;2023-02-08T15:24:03;17.07;;;10.50;;
10651;SDS011;5374;42.742;23.266;2023-02-08T15:26:59;14.07;;;9.83;;
10651;SDS011;5374;42.742;23.266;2023-02-08T15:29:46;10.97;;;7.70;;
10651;SDS011;5374;42.742;23.266;2023-02-08T15:32:35;13.40;;;10.10;;
10651;SDS011;5374;42.742;23.266;2023-02-08T15:35:22;14.57;;;10.10;;
10651;SDS011;5374;42.742;23.266;2023-02-08T15:38:13;18.27;;;12.43;;
10651;SDS011;5374;42.742;23.266;2023-02-08T15:41:05;12.67;;;8.37;;
10651;SDS011;5374;42.742;23.266;2023-02-08T15:43:59;14.30;;;10.20;;
10651;SDS011;5374;42.742;23.266;2023-02-08T15:46:48;21.17;;;12.60;;
10651;SDS011;5374;42.742;23.266;2023-02-08T15:49:39;15.63;;;9.83;;
10651;SDS011;5374;42.742;23.266;2023-02-08T15:52:29;26.57;;;16.17;;
10651;SDS011;5374;42.742;23.266;2023-02-08T15:55:20;14.13;;;9.60;;
10651;SDS011;5374;42.742;23.266;2023-02-08T15:58:12;25.97;;;14.17;;
10651;SDS011;5374;42.742;23.266;2023-02-08T16:01:04;20.77;;;12.70;;
10651;SDS011;5374;42.742;23.266;2023-02-08T16:03:54;16.57;;;9.27;;
10651;SDS011;5374;42.742;23.266;2023-02-08T16:06:46;28.97;;;14.33;;
10651;SDS011;5374;42.742;23.266;2023-02-08T16:09:36;19.83;;;10.30;;
10651;SDS011;5374;42.742;23.266;2023-02-08T16:12:24;25.30;;;13.40;;
10651;SDS011;5374;42.742;23.266;2023-02-08T16:18:33;19.30;;;10.80;;
10651;SDS011;5374;42.742;23.266;2023-02-08T16:21:28;15.70;;;9.73;;
10651;SDS011;5374;42.742;23.266;2023-02-08T16:24:22;24.87;;;18.63;;
10651;SDS011;5374;42.742;23.266;2023-02-08T16:27:14;12.23;;;7.53;;
10651;SDS011;5374;42.742;23.266;2023-02-08T16:30:14;14.60;;;10.23;;
10651;SDS011;5374;42.742;23.266;2023-02-08T16:33:04;14.63;;;10.50;;
10651;SDS011;5374;42.742;23.266;2023-02-08T16:35:53;14.37;;;10.30;;
10651;SDS011;5374;42.742;23.266;2023-02-08T16:38:48;16.27;;;12.43;;
10651;SDS011;5374;42.742;23.266;2023-02-08T16:42:20;12.63;;;9.40;;
10651;SDS011;5374;42.742;23.266;2023-02-08T16:45:14;16.10;;;10.83;;
10651;SDS011;5374;42.742;23.266;2023-02-08T16:48:05;12.83;;;9.73;;
10651;SDS011;5374;42.742;23.266;2023-02-08T16:51:16;11.10;;;8.27;;
10651;SDS011;5374;42.742;23.266;2023-02-08T16:54:06;15.10;;;10.23;;
10651;SDS011;5374;42.742;23.266;2023-02-08T16:56:59;12.53;;;8.33;;
10651;SDS011;5374;42.742;23.266;2023-02-08T16:59:46;19.73;;;14.37;;
10651;SDS011;5374;42.742;23.266;2023-02-08T17:02:33;18.70;;;11.97;;
10651;SDS011;5374;42.742;23.266;2023-02-08T17:05:24;20.70;;;11.30;;
10651;SDS011;5374;42.742;23.266;2023-02-08T17:08:15;22.23;;;12.47;;
10651;SDS011;5374;42.742;23.266;2023-02-08T17:11:03;13.00;;;8.23;;
10651;SDS011;5374;42.742;23.266;2023-02-08T17:13:52;13.37;;;8.37;;
10651;SDS011;5374;42.742;23.266;2023-02-08T17:16:39;19.77;;;12.80;;